Time;durP1;ratioP1;P1;durP2;ratioP2;P2;SDS_P1;SDS_P2;PMS_P1;PMS_P2;Temp;Humidity;BMP_temperature;BMP_pressure;BME280_temperature;BME280_humidity;BME280_pressure;Samples;Min_cycle;Max_cycle;Signal;HPM_P1;HPM_P2
2023/01/14 06:00:06;;;;;;;6.57;1.50;;;6.80;97.20;;;;;;1713811;28;20217;-68
2023/01/14 06:06:51;;;;;;;4.22;1.52;;;6.70;97.20;;;;;;1713378;28;20860;-68
2023/01/14 06:07:41;;;;;;;5.28;1.33;;;6.60;97.20;;;;;;1713836;28;20220;-68
2023/01/14 06:08:32;;;;;;;4.27;1.60;;;6.60;97.20;;;;;;1713293;28;20663;-67
2023/01/14 06:09:24;;;;;;;3.70;1.33;;;6.60;97.20;;;;;;1713108;28;20224;-68
2023/01/14 06:10:15;;;;;;;3.70;1.38;;;6.50;97.20;;;;;;1713384;28;20452;-68
2023/01/14 06:11:08;;;;;;;6.23;1.50;;;6.50;97.20;;;;;;1713550;28;20202;-67
2023/01/14 06:12:02;;;;;;;3.38;1.25;;;6.50;97.20;;;;;;1713938;28;20854;-67
2023/01/14 06:13:03;;;;;;;4.20;1.60;;;6.40;97.20;;;;;;1713760;28;20671;-68
2023/01/14 06:13:57;;;;;;;3.38;1.20;;;6.40;97.20;;;;;;1713785;28;20734;-67
2023/01/14 06:14:48;;;;;;;5.15;1.30;;;6.40;97.20;;;;;;1713895;28;20209;-68
2023/01/14 06:15:43;;;;;;;1.93;1.10;;;6.30;97.20;;;;;;1713727;28;20198;-68
2023/01/14 06:16:39;;;;;;;7.22;1.40;;;6.30;97.20;;;;;;1713221;28;20285;-68
2023/01/14 06:17:34;;;;;;;3.85;1.38;;;6.30;97.20;;;;;;1713482;28;20202;-68
2023/01/14 06:18:27;;;;;;;4.82;1.35;;;6.20;97.20;;;;;;1713202;28;20290;-68
2023/01/14 06:19:19;;;;;;;6.20;1.45;;;6.20;97.20;;;;;;1713388;28;20563;-68
2023/01/14 06:20:11;;;;;;;7.97;2.00;;;6.20;97.20;;;;;;1713573;28;20821;-68
2023/01/14 06:21:02;;;;;;;3.53;1.30;;;6.20;97.20;;;;;;1713884;28;20252;-68
2023/01/14 06:21:53;;;;;;;4.33;1.40;;;6.20;97.20;;;;;;1713732;28;20292;-68
2023/01/14 06:22:44;;;;;;;3.70;1.33;;;6.20;97.20;;;;;;1713447;28;20209;-68
2023/01/14 06:23:36;;;;;;;6.10;1.30;;;6.20;97.20;;;;;;1713319;28;20297;-68
2023/01/14 06:24:28;;;;;;;6.53;2.25;;;6.20;97.20;;;;;;1712360;28;20695;-67
2023/01/14 06:25:18;;;;;;;6.20;1.80;;;6.20;97.20;;;;;;1707202;28;20209;-68
2023/01/14 06:26:12;;;;;;;4.40;1.50;;;6.20;97.20;;;;;;1707076;28;20207;-68
2023/01/14 06:27:03;;;;;;;2.72;1.30;;;6.20;97.20;;;;;;1711124;28;20202;-68
2023/01/14 06:27:53;;;;;;;5.87;1.53;;;6.20;97.20;;;;;;1713187;28;20202;-67
2023/01/14 06:28:45;;;;;;;4.30;1.40;;;6.20;97.20;;;;;;1713644;28;20210;-68
2023/01/14 06:29:36;;;;;;;6.53;1.67;;;6.20;97.20;;;;;;1713127;28;20216;-68
2023/01/14 06:30:28;;;;;;;3.50;1.10;;;6.20;97.20;;;;;;1713210;28;20204;-68
2023/01/14 06:31:20;;;;;;;3.90;1.23;;;6.20;97.20;;;;;;1713554;28;20355;-67
2023/01/14 06:32:12;;;;;;;8.07;1.83;;;6.20;97.20;;;;;;1713753;28;20213;-67
2023/01/14 06:33:03;;;;;;;7.30;1.60;;;6.20;97.20;;;;;;1713802;28;20233;-68
2023/01/14 06:33:56;;;;;;;10.43;1.43;;;6.10;97.20;;;;;;1713801;28;20202;-68
2023/01/14 06:34:46;;;;;;;3.55;1.40;;;6.10;97.20;;;;;;1713791;28;21002;-68
2023/01/14 06:35:42;;;;;;;5.33;1.93;;;6.10;97.20;;;;;;1713701;28;20614;-67
2023/01/14 06:36:36;;;;;;;5.63;1.48;;;6.10;97.20;;;;;;1713092;28;20613;-67
2023/01/14 06:37:27;;;;;;;4.40;1.70;;;6.10;97.20;;;;;;1706757;28;20210;-68
2023/01/14 06:38:18;;;;;;;3.97;1.33;;;6.10;97.20;;;;;;1711604;28;20190;-68
2023/01/14 06:39:09;;;;;;;3.20;1.17;;;6.10;97.20;;;;;;1713573;28;20211;-68
2023/01/14 06:40:01;;;;;;;5.83;1.30;;;6.10;97.20;;;;;;1713423;28;20208;-68
2023/01/14 06:40:51;;;;;;;3.45;1.10;;;6.10;97.20;;;;;;1713692;28;20221;-68
2023/01/14 06:41:43;;;;;;;5.27;2.00;;;6.10;97.20;;;;;;1713889;28;20209;-68
2023/01/14 06:42:34;;;;;;;7.20;2.05;;;6.10;97.20;;;;;;1713635;28;20209;-68
2023/01/14 06:43:25;;;;;;;4.63;1.03;;;6.10;97.20;;;;;;1713256;28;20206;-68
2023/01/14 06:44:17;;;;;;;4.18;1.27;;;6.10;97.20;;;;;;1713493;28;20221;-68
2023/01/14 06:45:09;;;;;;;4.07;1.60;;;6.10;97.20;;;;;;1713312;28;20210;-68
2023/01/14 06:46:00;;;;;;;4.82;1.77;;;6.10;97.20;;;;;;1713832;28;20212;-68
2023/01/14 06:46:54;;;;;;;5.83;1.93;;;6.10;97.20;;;;;;1713243;28;20208;-67
2023/01/14 06:47:45;;;;;;;4.25;1.33;;;6.20;97.20;;;;;;1713759;28;20473;-68
2023/01/14 06:48:36;;;;;;;5.00;1.47;;;6.20;97.20;;;;;;1713134;28;20233;-68
2023/01/14 06:49:27;;;;;;;5.82;1.20;;;6.20;97.20;;;;;;1713258;28;20214;-68
2023/01/14 06:50:19;;;;;;;3.37;1.10;;;6.20;97.20;;;;;;1713214;28;20198;-68
2023/01/14 06:51:12;;;;;;;5.65;1.70;;;6.20;97.20;;;;;;1713451;28;20237;-67
2023/01/14 06:52:04;;;;;;;5.22;1.63;;;6.20;97.20;;;;;;1713582;28;20209;-68
2023/01/14 06:52:59;;;;;;;5.10;1.70;;;6.30;97.20;;;;;;1713654;28;20202;-68
2023/01/14 06:53:51;;;;;;;6.28;1.77;;;6.30;97.20;;;;;;1713719;28;20238;-68
2023/01/14 06:54:41;;;;;;;3.05;1.30;;;6.30;97.20;;;;;;1713734;28;20205;-68
2023/01/14 06:55:33;;;;;;;5.03;1.60;;;6.30;97.20;;;;;;1713744;28;20201;-68
2023/01/14 06:56:24;;;;;;;4.88;1.40;;;6.30;97.20;;;;;;1713633;28;20206;-68
2023/01/14 06:57:15;;;;;;;4.20;1.33;;;6.40;97.20;;;;;;1712758;28;20204;-68
2023/01/14 06:58:06;;;;;;;3.03;1.17;;;6.40;97.20;;;;;;1712841;28;21077;-67
2023/01/14 06:58:58;;;;;;;4.77;1.53;;;6.40;97.20;;;;;;1714277;28;20652;-68
2023/01/14 06:59:49;;;;;;;7.05;1.63;;;6.40;97.20;;;;;;1714704;28;20237;-68
2023/01/14 07:00:40;;;;;;;5.50;1.80;;;6.40;97.20;;;;;;1713976;28;20234;-68
2023/01/14 07:01:31;;;;;;;4.82;1.80;;;6.50;97.20;;;;;;1714550;28;20209;-68
2023/01/14 07:02:24;;;;;;;9.03;2.30;;;6.50;97.20;;;;;;1715037;28;20202;-68
2023/01/14 07:03:15;;;;;;;6.35;2.67;;;6.50;97.20;;;;;;1714818;28;20610;-69
2023/01/14 07:04:06;;;;;;;4.60;2.40;;;6.50;97.20;;;;;;1714570;28;20726;-68
2023/01/14 07:04:57;;;;;;;8.82;2.63;;;6.50;97.20;;;;;;1714673;28;20217;-68
2023/01/14 07:05:49;;;;;;;5.03;2.90;;;6.50;97.20;;;;;;1714818;28;20216;-68
2023/01/14 07:06:39;;;;;;;6.43;1.98;;;6.50;97.20;;;;;;1714485;28;20206;-67
2023/01/14 07:07:31;;;;;;;5.80;2.20;;;6.50;97.20;;;;;;1714885;28;20201;-68
2023/01/14 07:08:22;;;;;;;6.88;2.22;;;6.50;97.20;;;;;;1714515;28;20213;-68
2023/01/14 07:09:14;;;;;;;3.93;1.43;;;6.50;97.20;;;;;;1714662;28;20205;-68
2023/01/14 07:10:05;;;;;;;5.70;2.00;;;6.60;97.20;;;;;;1714623;28;20263;-68
2023/01/14 07:10:56;;;;;;;6.72;1.90;;;6.60;97.20;;;;;;1714386;28;20257;-68
2023/01/14 07:11:47;;;;;;;3.58;1.40;;;6.60;97.20;;;;;;1714527;28;20197;-68
2023/01/14 07:12:39;;;;;;;5.13;1.20;;;6.60;97.20;;;;;;1714818;28;20197;-68
2023/01/14 07:13:30;;;;;;;3.38;1.48;;;6.60;97.20;;;;;;1714937;28;20209;-68
2023/01/14 07:14:21;;;;;;;8.17;2.20;;;6.60;97.20;;;;;;1714997;28;20204;-67
2023/01/14 07:15:13;;;;;;;4.18;1.42;;;6.60;97.20;;;;;;1714863;28;20213;-67
2023/01/14 07:16:06;;;;;;;4.72;1.70;;;6.60;97.20;;;;;;1714874;28;20647;-67
2023/01/14 07:16:56;;;;;;;6.65;1.67;;;6.70;97.20;;;;;;1714241;28;21007;-68
2023/01/14 07:17:50;;;;;;;4.63;1.60;;;6.70;97.20;;;;;;1714463;28;20605;-68
2023/01/14 07:18:41;;;;;;;3.95;1.55;;;6.70;97.20;;;;;;1714532;28;20225;-68
2023/01/14 07:19:32;;;;;;;5.20;1.70;;;6.70;97.20;;;;;;1714427;28;20300;-68
2023/01/14 07:20:23;;;;;;;6.93;2.22;;;6.70;97.20;;;;;;1714737;28;20205;-68
2023/01/14 07:21:15;;;;;;;2.70;1.50;;;6.70;97.20;;;;;;1714756;28;20205;-68
2023/01/14 07:22:06;;;;;;;4.85;1.60;;;6.70;97.20;;;;;;1714953;28;20808;-68
2023/01/14 07:23:01;;;;;;;5.20;1.70;;;6.80;97.20;;;;;;1714895;28;20627;-67
2023/01/14 07:23:52;;;;;;;5.03;1.75;;;6.80;97.20;;;;;;1714721;28;20449;-68
2023/01/14 07:24:44;;;;;;;7.57;1.50;;;6.80;97.20;;;;;;1714626;28;20719;-68
2023/01/14 07:25:35;;;;;;;3.95;1.63;;;6.80;97.20;;;;;;1714428;28;20224;-67
2023/01/14 07:26:27;;;;;;;4.75;1.73;;;6.80;97.20;;;;;;1714799;28;20213;-68
2023/01/14 07:27:18;;;;;;;4.90;1.58;;;6.80;97.20;;;;;;1714330;28;20597;-68
2023/01/14 07:28:09;;;;;;;6.37;1.90;;;6.80;97.20;;;;;;1714258;28;20544;-68
2023/01/14 07:29:00;;;;;;;4.55;1.70;;;6.90;97.20;;;;;;1714897;28;20213;-68
2023/01/14 07:29:52;;;;;;;3.30;1.50;;;6.90;97.20;;;;;;1714524;28;20212;-68
2023/01/14 07:30:42;;;;;;;6.72;1.65;;;6.90;97.20;;;;;;1714448;28;20230;-68
2023/01/14 07:31:34;;;;;;;3.63;1.40;;;6.90;97.20;;;;;;1714310;28;20697;-68
2023/01/14 07:32:25;;;;;;;3.70;1.40;;;6.90;97.20;;;;;;1714551;28;20222;-67
2023/01/14 07:33:18;;;;;;;7.70;1.50;;;6.90;97.20;;;;;;1714667;28;20201;-68
2023/01/14 07:34:09;;;;;;;3.75;1.80;;;6.90;97.20;;;;;;1714464;28;20205;-68
2023/01/14 07:35:01;;;;;;;3.60;1.40;;;6.90;97.20;;;;;;1714827;28;20201;-68
2023/01/14 07:35:52;;;;;;;5.13;1.70;;;7.00;97.20;;;;;;1714621;28;20210;-68
2023/01/14 07:36:44;;;;;;;6.18;1.88;;;7.00;97.20;;;;;;1714714;28;20381;-68
2023/01/14 07:37:34;;;;;;;6.55;1.83;;;7.00;97.20;;;;;;1714506;28;20202;-68
2023/01/14 07:38:26;;;;;;;6.07;2.07;;;7.00;97.20;;;;;;1713876;28;20205;-67
2023/01/14 07:39:17;;;;;;;5.68;1.90;;;7.00;97.20;;;;;;1713864;28;20213;-68
2023/01/14 07:40:10;;;;;;;6.50;2.27;;;7.00;97.20;;;;;;1714833;28;20210;-67
2023/01/14 07:41:00;;;;;;;3.60;1.38;;;7.00;97.20;;;;;;1714608;28;20284;-68
2023/01/14 07:41:52;;;;;;;8.07;1.93;;;7.00;97.20;;;;;;1714615;28;20731;-67
2023/01/14 07:42:43;;;;;;;5.82;1.75;;;7.00;97.20;;;;;;1714861;28;20298;-68
2023/01/14 07:43:35;;;;;;;5.20;1.60;;;7.00;97.20;;;;;;1714745;28;20218;-68
2023/01/14 07:44:25;;;;;;;4.82;1.73;;;7.00;97.20;;;;;;1714181;28;20715;-68
2023/01/14 07:45:17;;;;;;;9.70;2.10;;;7.00;97.20;;;;;;1714318;28;20734;-68
2023/01/14 07:46:09;;;;;;;3.75;1.85;;;7.00;97.20;;;;;;1714465;28;20683;-68
2023/01/14 07:47:00;;;;;;;5.40;1.90;;;7.00;97.20;;;;;;1714597;28;20565;-68
2023/01/14 07:47:51;;;;;;;9.15;2.58;;;7.00;97.20;;;;;;1714141;28;20212;-67
2023/01/14 07:48:45;;;;;;;5.83;1.93;;;7.00;97.20;;;;;;1714849;28;20204;-68
2023/01/14 07:49:39;;;;;;;7.03;1.77;;;7.00;97.20;;;;;;1714522;28;20519;-68
2023/01/14 07:50:30;;;;;;;8.35;2.25;;;7.00;97.20;;;;;;1714460;28;20288;-66
2023/01/14 07:51:23;;;;;;;6.15;1.75;;;7.00;97.20;;;;;;1714383;28;20676;-68
2023/01/14 07:52:14;;;;;;;8.98;2.10;;;7.00;97.20;;;;;;1714243;28;20276;-66
2023/01/14 07:53:05;;;;;;;5.45;1.67;;;7.00;97.20;;;;;;1714358;28;20248;-68
2023/01/14 07:53:57;;;;;;;5.00;2.17;;;7.10;97.20;;;;;;1714350;28;20205;-68
2023/01/14 07:54:48;;;;;;;4.85;2.17;;;7.10;97.20;;;;;;1714609;28;20448;-67
2023/01/14 07:55:39;;;;;;;5.43;2.10;;;7.10;97.20;;;;;;1714799;28;20209;-68
2023/01/14 07:56:30;;;;;;;6.85;1.70;;;7.10;97.20;;;;;;1714666;28;20217;-69
2023/01/14 07:57:22;;;;;;;10.63;2.70;;;7.10;97.20;;;;;;1714463;28;20660;-67
2023/01/14 07:58:14;;;;;;;7.90;2.15;;;7.10;97.20;;;;;;1713654;28;20209;-69
2023/01/14 07:59:05;;;;;;;10.15;2.00;;;7.10;97.20;;;;;;1714132;28;20206;-67
2023/01/14 07:59:56;;;;;;;9.05;2.00;;;7.10;97.20;;;;;;1714218;28;20221;-67
2023/01/14 08:00:48;;;;;;;9.30;2.47;;;7.10;97.20;;;;;;1713397;28;20761;-69
2023/01/14 08:01:39;;;;;;;7.10;2.30;;;7.10;97.20;;;;;;1714778;28;20652;-68
2023/01/14 08:02:30;;;;;;;5.03;1.80;;;7.20;97.20;;;;;;1714662;28;20763;-68
2023/01/14 08:03:22;;;;;;;7.07;2.20;;;7.20;97.20;;;;;;1714623;28;20469;-68
2023/01/14 08:04:15;;;;;;;5.43;1.90;;;7.20;97.20;;;;;;1714042;28;20198;-68
2023/01/14 08:05:07;;;;;;;6.63;2.53;;;7.20;97.20;;;;;;1714156;28;20217;-68
2023/01/14 08:06:01;;;;;;;5.82;1.90;;;7.20;97.20;;;;;;1714204;28;20201;-68
2023/01/14 08:06:52;;;;;;;5.88;1.80;;;7.20;97.20;;;;;;1714102;28;20621;-68
2023/01/14 08:07:44;;;;;;;4.63;2.40;;;7.20;97.20;;;;;;1714595;28;20272;-68
2023/01/14 08:08:35;;;;;;;8.10;1.65;;;7.30;97.20;;;;;;1714071;28;20206;-68
2023/01/14 08:09:27;;;;;;;11.37;2.00;;;7.30;97.20;;;;;;1713944;28;20197;-68
2023/01/14 08:10:18;;;;;;;6.60;1.92;;;7.30;97.20;;;;;;1714512;28;20461;-68
2023/01/14 08:11:09;;;;;;;8.30;3.33;;;7.30;97.20;;;;;;1714288;28;20201;-68
2023/01/14 08:12:00;;;;;;;6.03;2.00;;;7.30;97.20;;;;;;1714107;28;20940;-68
2023/01/14 08:12:52;;;;;;;9.10;1.93;;;7.40;97.20;;;;;;1714116;28;20578;-68
2023/01/14 08:13:43;;;;;;;5.57;1.70;;;7.40;97.20;;;;;;1714596;28;20205;-68
2023/01/14 08:14:34;;;;;;;7.13;2.10;;;7.50;97.20;;;;;;1714276;28;20208;-68
2023/01/14 08:15:25;;;;;;;8.15;2.70;;;7.50;97.20;;;;;;1714685;28;20202;-68
2023/01/14 08:16:17;;;;;;;9.57;2.73;;;7.50;97.20;;;;;;1714824;28;20202;-68
2023/01/14 08:17:08;;;;;;;8.07;1.65;;;7.60;97.20;;;;;;1714279;28;20209;-68
2023/01/14 08:17:59;;;;;;;6.07;1.60;;;7.60;97.20;;;;;;1713743;28;20293;-68
2023/01/14 08:18:50;;;;;;;5.60;1.90;;;7.60;97.20;;;;;;1714102;28;20201;-67
2023/01/14 08:19:44;;;;;;;6.32;1.92;;;7.70;97.20;;;;;;1714016;28;20202;-68
2023/01/14 08:20:35;;;;;;;7.93;2.05;;;7.70;97.20;;;;;;1714150;28;20237;-68
2023/01/14 08:21:27;;;;;;;8.03;2.43;;;7.80;97.20;;;;;;1714448;28;20795;-68
2023/01/14 08:22:17;;;;;;;7.50;2.35;;;7.80;97.20;;;;;;1714428;28;20201;-68
2023/01/14 08:23:09;;;;;;;10.53;2.50;;;7.80;97.20;;;;;;1714534;28;20210;-68
2023/01/14 08:24:00;;;;;;;6.85;2.78;;;7.90;97.20;;;;;;1714303;28;20584;-68
2023/01/14 08:24:51;;;;;;;8.20;2.47;;;7.90;97.20;;;;;;1709818;28;20202;-68
2023/01/14 08:25:42;;;;;;;5.93;2.17;;;7.90;97.20;;;;;;1707450;28;20552;-68
2023/01/14 08:26:34;;;;;;;7.90;2.80;;;7.90;97.20;;;;;;1707251;28;20224;-68
2023/01/14 08:27:26;;;;;;;7.78;2.22;;;8.00;97.20;;;;;;1707616;28;20237;-67
2023/01/14 08:28:19;;;;;;;5.68;2.03;;;8.00;97.20;;;;;;1707281;29;20241;-68
2023/01/14 08:29:09;;;;;;;5.93;2.78;;;8.10;97.20;;;;;;1707737;28;20207;-68
2023/01/14 08:30:01;;;;;;;7.10;2.03;;;8.10;97.20;;;;;;1707719;28;20209;-68
2023/01/14 08:31:00;;;;;;;7.97;2.65;;;8.20;97.20;;;;;;1707470;28;20266;-68
2023/01/14 08:31:54;;;;;;;6.88;2.35;;;8.30;97.20;;;;;;1707364;28;20195;-67
2023/01/14 08:32:47;;;;;;;5.20;2.20;;;8.40;97.20;;;;;;1707461;28;20207;-68
2023/01/14 08:33:39;;;;;;;7.00;2.22;;;8.50;97.20;;;;;;1707407;28;20266;-68
2023/01/14 08:34:30;;;;;;;5.82;2.25;;;8.60;97.20;;;;;;1712552;28;20331;-68
2023/01/14 08:35:23;;;;;;;6.27;2.37;;;8.60;97.20;;;;;;1714513;28;20197;-68
2023/01/14 08:36:15;;;;;;;7.28;2.22;;;8.70;97.20;;;;;;1714354;28;20476;-68
2023/01/14 08:37:07;;;;;;;6.43;2.92;;;8.80;97.20;;;;;;1714125;28;20204;-68
2023/01/14 08:37:58;;;;;;;6.25;3.28;;;8.90;97.20;;;;;;1713858;28;20206;-68
2023/01/14 08:38:53;;;;;;;5.30;2.03;;;8.90;97.20;;;;;;1713965;28;20220;-68
2023/01/14 08:39:44;;;;;;;6.68;2.20;;;9.00;97.20;;;;;;1713859;28;20225;-68
2023/01/14 08:40:35;;;;;;;5.20;2.17;;;9.00;97.20;;;;;;1714010;28;20214;-68
2023/01/14 08:41:26;;;;;;;7.30;2.15;;;9.00;97.20;;;;;;1714359;28;20729;-68
2023/01/14 08:42:18;;;;;;;6.77;2.60;;;9.00;97.20;;;;;;1714304;28;20686;-67
2023/01/14 08:43:09;;;;;;;5.43;2.30;;;9.00;97.20;;;;;;1714220;28;20690;-68
2023/01/14 08:44:00;;;;;;;7.70;2.10;;;9.00;97.20;;;;;;1714078;28;20220;-68
2023/01/14 08:44:51;;;;;;;10.13;2.25;;;9.10;97.20;;;;;;1714302;28;20233;-67
2023/01/14 08:45:43;;;;;;;7.33;1.90;;;9.10;97.20;;;;;;1714109;28;20688;-68
2023/01/14 08:46:33;;;;;;;5.05;2.17;;;9.00;97.20;;;;;;1713663;28;20201;-68
2023/01/14 08:47:25;;;;;;;5.57;2.20;;;9.00;97.20;;;;;;1713908;28;20205;-68
2023/01/14 08:48:16;;;;;;;9.77;2.28;;;9.00;97.20;;;;;;1713791;28;20202;-68
2023/01/14 08:49:08;;;;;;;4.70;1.70;;;8.90;97.20;;;;;;1714082;28;20194;-68
2023/01/14 08:49:59;;;;;;;4.57;1.75;;;8.80;97.20;;;;;;1714082;28;20613;-68
2023/01/14 08:50:52;;;;;;;5.30;2.30;;;8.80;97.20;;;;;;1714185;28;20641;-68
2023/01/14 08:51:42;;;;;;;5.82;2.10;;;8.70;97.20;;;;;;1714301;28;20213;-68
2023/01/14 08:52:34;;;;;;;5.73;2.00;;;8.60;97.20;;;;;;1713786;28;20676;-67
2023/01/14 08:53:25;;;;;;;6.10;1.60;;;8.50;97.20;;;;;;1713939;28;20449;-68
2023/01/14 08:54:17;;;;;;;7.37;1.90;;;8.50;97.20;;;;;;1713953;28;20216;-68
2023/01/14 08:55:08;;;;;;;4.90;1.52;;;8.40;97.20;;;;;;1714041;28;20221;-68
2023/01/14 08:56:00;;;;;;;7.32;1.90;;;8.40;97.20;;;;;;1714218;28;20208;-68
2023/01/14 08:56:54;;;;;;;15.85;2.58;;;8.30;97.20;;;;;;1713814;28;20245;-68
2023/01/14 08:57:46;;;;;;;4.45;1.95;;;8.30;97.20;;;;;;1714309;28;20210;-67
2023/01/14 08:58:37;;;;;;;6.57;2.80;;;8.30;97.20;;;;;;1713641;28;20197;-68
2023/01/14 08:59:28;;;;;;;5.90;1.85;;;8.30;97.20;;;;;;1713560;28;20706;-67
2023/01/14 09:00:20;;;;;;;13.25;2.67;;;8.30;97.20;;;;;;1713879;28;20210;-68
2023/01/14 09:01:12;;;;;;;7.93;2.28;;;8.20;97.20;;;;;;1712751;28;20308;-68
2023/01/14 09:02:03;;;;;;;5.80;2.10;;;8.20;97.20;;;;;;1714192;28;20710;-68
2023/01/14 09:02:55;;;;;;;4.10;1.40;;;8.20;97.20;;;;;;1714111;28;20571;-68
2023/01/14 09:03:46;;;;;;;6.65;1.70;;;8.20;97.20;;;;;;1714364;28;20441;-67
2023/01/14 09:04:37;;;;;;;4.20;1.60;;;8.20;97.20;;;;;;1713903;28;20201;-68
2023/01/14 09:05:30;;;;;;;5.22;1.85;;;8.20;97.20;;;;;;1714069;28;20798;-67
2023/01/14 09:06:24;;;;;;;3.40;1.90;;;8.20;97.20;;;;;;1713593;28;20569;-68
2023/01/14 09:17:07;;;;;;;8.52;2.00;;;8.20;97.20;;;;;;1693221;29;20292;-68
2023/01/14 09:17:59;;;;;;;4.63;1.70;;;8.20;97.20;;;;;;1706165;28;20222;-68
2023/01/14 09:18:50;;;;;;;5.10;1.80;;;8.20;97.20;;;;;;1707624;28;20214;-68
2023/01/14 09:19:46;;;;;;;4.37;1.90;;;8.20;97.20;;;;;;1706953;28;20903;-68
2023/01/14 09:20:39;;;;;;;4.10;1.83;;;8.20;97.20;;;;;;1707390;28;20229;-68
2023/01/14 09:21:32;;;;;;;5.85;2.05;;;8.20;97.20;;;;;;1706746;28;20223;-69
2023/01/14 09:22:24;;;;;;;5.03;1.90;;;8.20;97.20;;;;;;1707665;28;20230;-69
2023/01/14 09:23:16;;;;;;;5.05;1.95;;;8.20;97.20;;;;;;1710766;28;20249;-69
2023/01/14 09:24:07;;;;;;;3.80;1.92;;;8.20;97.20;;;;;;1714266;28;20256;-69
2023/01/14 09:24:59;;;;;;;4.80;1.87;;;8.20;97.20;;;;;;1708988;28;20198;-69
2023/01/14 09:25:49;;;;;;;5.30;2.30;;;8.30;97.20;;;;;;1707526;28;20700;-69
2023/01/14 09:26:41;;;;;;;5.50;1.90;;;8.30;97.20;;;;;;1706998;28;20581;-69
2023/01/14 09:27:32;;;;;;;3.00;1.80;;;8.30;97.20;;;;;;1707061;28;20211;-69
2023/01/14 09:28:23;;;;;;;4.37;1.60;;;8.30;97.20;;;;;;1706964;28;20198;-68
2023/01/14 09:29:14;;;;;;;4.18;1.45;;;8.30;97.20;;;;;;1707231;28;20857;-68
2023/01/14 09:30:07;;;;;;;3.40;1.70;;;8.30;97.20;;;;;;1707549;28;20672;-69
2023/01/14 09:30:58;;;;;;;4.45;2.30;;;8.30;97.20;;;;;;1707399;28;20234;-69
2023/01/14 09:31:50;;;;;;;6.93;1.60;;;8.30;97.20;;;;;;1707526;28;20203;-69
2023/01/14 09:32:41;;;;;;;5.70;1.40;;;8.30;97.20;;;;;;1707570;28;20214;-69
2023/01/14 09:33:32;;;;;;;5.45;1.67;;;8.30;97.20;;;;;;1711522;28;20221;-69
2023/01/14 09:34:23;;;;;;;4.57;1.70;;;8.30;97.20;;;;;;1713936;28;20700;-69
2023/01/14 09:35:15;;;;;;;5.40;2.03;;;8.40;97.20;;;;;;1714209;28;20741;-69
2023/01/14 09:36:07;;;;;;;6.40;1.50;;;8.30;97.20;;;;;;1714435;28;20449;-69
2023/01/14 09:37:10;;;;;;;5.97;1.98;;;8.40;97.20;;;;;;1714028;28;20206;-69
2023/01/14 09:38:00;;;;;;;4.50;1.48;;;8.40;97.20;;;;;;1713726;28;20201;-69
2023/01/14 09:38:52;;;;;;;5.17;2.10;;;8.40;97.20;;;;;;1714266;28;20216;-69
2023/01/14 09:39:43;;;;;;;3.72;1.40;;;8.40;97.20;;;;;;1713518;28;20206;-69
2023/01/14 09:40:38;;;;;;;2.70;1.70;;;8.40;97.20;;;;;;1713915;28;20253;-69
2023/01/14 09:41:31;;;;;;;3.13;1.42;;;8.40;97.20;;;;;;1714005;28;20222;-69
2023/01/14 09:42:28;;;;;;;4.22;1.38;;;8.40;97.20;;;;;;1714418;28;20634;-69
2023/01/14 09:43:20;;;;;;;4.40;1.60;;;8.40;97.20;;;;;;1714062;28;20282;-69
2023/01/14 09:44:13;;;;;;;4.45;1.25;;;8.40;97.20;;;;;;1714169;28;20213;-70
2023/01/14 09:45:12;;;;;;;3.55;1.35;;;8.40;97.20;;;;;;1714245;28;20209;-68
2023/01/14 09:46:04;;;;;;;4.70;1.75;;;8.40;97.20;;;;;;1714206;28;20197;-68
2023/01/14 09:46:56;;;;;;;3.42;1.45;;;8.40;97.20;;;;;;1713664;28;20217;-69
2023/01/14 09:47:48;;;;;;;6.45;2.08;;;8.40;97.20;;;;;;1713846;28;20229;-69
2023/01/14 09:48:39;;;;;;;5.88;1.67;;;8.50;97.20;;;;;;1713535;28;20202;-69
2023/01/14 09:49:31;;;;;;;3.20;1.20;;;8.50;97.20;;;;;;1713957;28;20202;-69
2023/01/14 09:50:32;;;;;;;3.83;1.27;;;8.60;97.20;;;;;;1714310;28;20210;-69
2023/01/14 09:51:47;;;;;;;5.25;1.60;;;8.60;97.20;;;;;;1714621;28;20574;-68
2023/01/14 09:52:56;;;;;;;4.68;1.67;;;8.70;97.20;;;;;;1714699;28;20209;-69
2023/01/14 09:54:02;;;;;;;3.28;1.30;;;8.70;97.20;;;;;;1713139;28;20198;-69
2023/01/14 09:55:04;;;;;;;4.05;1.23;;;8.80;97.20;;;;;;1714104;28;20738;-69
2023/01/14 09:56:00;;;;;;;3.72;1.20;;;8.80;97.20;;;;;;1709804;28;20214;-69
2023/01/14 09:56:58;;;;;;;5.18;1.38;;;8.90;97.20;;;;;;1714138;28;20197;-69
2023/01/14 09:57:54;;;;;;;3.50;1.60;;;9.00;97.20;;;;;;1714441;28;20210;-69
2023/01/14 09:58:53;;;;;;;3.60;1.45;;;9.10;97.20;;;;;;1714452;28;20228;-69
2023/01/14 09:59:54;;;;;;;3.25;1.42;;;9.20;97.20;;;;;;1714038;28;20659;-69
2023/01/14 10:00:53;;;;;;;3.30;1.30;;;9.30;97.20;;;;;;1712927;28;20288;-70
2023/01/14 10:01:50;;;;;;;4.68;1.45;;;9.40;97.20;;;;;;1713919;28;20264;-70
2023/01/14 10:02:48;;;;;;;4.43;2.38;;;9.50;97.20;;;;;;1714238;28;20185;-69
2023/01/14 10:03:47;;;;;;;5.28;1.40;;;9.60;97.20;;;;;;1714336;28;20201;-69
2023/01/14 10:04:51;;;;;;;3.13;1.25;;;9.60;97.20;;;;;;1714391;28;20202;-69
2023/01/14 10:05:48;;;;;;;3.10;1.45;;;9.70;97.20;;;;;;1714151;28;20221;-68
2023/01/14 10:06:42;;;;;;;3.58;1.50;;;9.70;97.20;;;;;;1713720;28;20182;-69
2023/01/14 10:07:34;;;;;;;2.38;1.10;;;9.70;97.20;;;;;;1713676;28;20198;-69
2023/01/14 10:08:33;;;;;;;3.65;1.55;;;9.70;97.20;;;;;;1713105;28;20306;-69
2023/01/14 10:09:27;;;;;;;3.35;1.67;;;9.70;97.20;;;;;;1714044;28;20579;-69
2023/01/14 10:10:25;;;;;;;4.38;1.65;;;9.70;97.20;;;;;;1714043;28;20213;-68
2023/01/14 10:11:16;;;;;;;5.78;2.15;;;9.70;97.20;;;;;;1713989;28;20304;-69
2023/01/14 10:12:12;;;;;;;2.30;1.20;;;9.70;97.20;;;;;;1714001;28;20209;-70
2023/01/14 10:13:09;;;;;;;6.47;1.55;;;9.70;97.20;;;;;;1714125;28;20668;-69
2023/01/14 10:14:05;;;;;;;3.78;1.45;;;9.60;97.20;;;;;;1713567;28;20209;-69
2023/01/14 10:15:01;;;;;;;2.65;0.98;;;9.60;97.20;;;;;;1713728;28;20213;-70
2023/01/14 10:15:56;;;;;;;4.97;1.67;;;9.60;97.20;;;;;;1713589;28;20243;-69
2023/01/14 10:16:52;;;;;;;4.10;2.08;;;9.60;97.20;;;;;;1713905;28;20587;-69
2023/01/14 10:17:48;;;;;;;3.38;1.50;;;9.60;97.20;;;;;;1713987;28;20264;-70
2023/01/14 10:18:48;;;;;;;2.60;1.42;;;9.50;97.20;;;;;;1713511;28;20229;-69
2023/01/14 10:19:43;;;;;;;7.05;1.65;;;9.50;97.20;;;;;;1714211;28;20201;-69
2023/01/14 10:20:42;;;;;;;3.15;1.15;;;9.50;97.20;;;;;;1714133;28;20232;-68
2023/01/14 10:21:42;;;;;;;2.58;1.30;;;9.50;97.20;;;;;;1713987;28;20206;-69
2023/01/14 10:22:37;;;;;;;8.57;3.15;;;9.50;97.20;;;;;;1714056;28;20640;-69
2023/01/14 10:23:36;;;;;;;2.45;1.30;;;9.50;97.20;;;;;;1714166;28;20591;-69
2023/01/14 10:24:27;;;;;;;4.80;1.70;;;9.50;97.20;;;;;;1714263;28;20240;-69
2023/01/14 10:25:21;;;;;;;5.35;1.63;;;9.50;97.20;;;;;;1713796;28;20288;-69
2023/01/14 10:26:15;;;;;;;4.03;1.80;;;9.50;97.20;;;;;;1714252;28;20206;-68
2023/01/14 10:27:13;;;;;;;3.22;1.40;;;9.40;97.20;;;;;;1713922;28;20206;-68
2023/01/14 10:28:12;;;;;;;3.25;1.50;;;9.50;97.20;;;;;;1713532;28;20187;-68
2023/01/14 10:29:13;;;;;;;3.50;1.50;;;9.40;97.20;;;;;;1714157;28;20604;-69
2023/01/14 10:30:16;;;;;;;4.00;1.33;;;9.50;97.20;;;;;;1714235;28;20787;-68
2023/01/14 10:31:13;;;;;;;1.50;1.00;;;9.50;97.20;;;;;;1714443;28;20931;-69
2023/01/14 10:32:15;;;;;;;4.15;1.58;;;9.40;97.20;;;;;;1718397;28;20248;-69
2023/01/14 10:33:12;;;;;;;2.05;1.40;;;9.40;97.20;;;;;;1715695;28;20285;-71
2023/01/14 10:34:06;;;;;;;3.15;1.42;;;9.40;97.20;;;;;;1717007;28;20696;-72
2023/01/14 10:35:05;;;;;;;1.70;1.15;;;9.40;97.20;;;;;;1718518;28;20287;-71
2023/01/14 10:36:02;;;;;;;5.63;1.45;;;9.40;97.20;;;;;;1712152;28;20202;-71
2023/01/14 10:36:54;;;;;;;4.80;1.25;;;9.40;97.20;;;;;;1711094;29;20210;-72
2023/01/14 10:37:45;;;;;;;2.28;1.10;;;9.50;97.20;;;;;;1709078;28;20849;-73
2023/01/14 10:38:40;;;;;;;3.30;1.02;;;9.50;97.20;;;;;;1708326;28;20656;-71
2023/01/14 10:39:32;;;;;;;4.38;1.23;;;9.50;97.20;;;;;;1708199;28;20612;-72
2023/01/14 10:40:25;;;;;;;3.42;1.20;;;9.50;97.20;;;;;;1708544;28;20202;-72
2023/01/14 10:41:48;;;;;;;2.15;1.10;;;9.50;97.20;;;;;;1708343;28;20273;-71
2023/01/14 10:42:29;;;;;;;1.27;0.90;;;9.60;97.20;;;;;;1707984;29;20205;-72
2023/01/14 10:43:32;;;;;;;2.87;1.60;;;9.60;97.20;;;;;;1708518;28;20221;-70
2023/01/14 10:44:26;;;;;;;4.47;1.35;;;9.60;97.20;;;;;;1708558;28;20520;-72
2023/01/14 10:45:18;;;;;;;2.30;0.95;;;9.60;97.20;;;;;;1710252;28;20198;-71
2023/01/14 10:46:14;;;;;;;2.78;1.42;;;9.60;97.20;;;;;;1713112;28;20325;-71
2023/01/14 10:47:10;;;;;;;5.20;1.10;;;9.60;97.20;;;;;;1714572;28;20644;-71
2023/01/14 10:48:02;;;;;;;2.72;1.25;;;9.70;97.20;;;;;;1710256;28;20214;-71
2023/01/14 10:49:01;;;;;;;4.05;1.40;;;9.70;97.20;;;;;;1714964;28;20233;-72
2023/01/14 10:49:55;;;;;;;2.45;1.15;;;9.70;97.20;;;;;;1714598;28;20202;-71
2023/01/14 10:50:47;;;;;;;2.22;0.90;;;9.70;97.20;;;;;;1715022;28;20232;-72
2023/01/14 10:51:47;;;;;;;2.80;1.10;;;9.70;97.20;;;;;;1715122;28;20206;-72
2023/01/14 10:52:39;;;;;;;3.10;1.13;;;9.70;97.20;;;;;;1715114;28;20202;-71
2023/01/14 10:53:30;;;;;;;5.38;1.15;;;9.70;97.20;;;;;;1715103;28;20198;-71
2023/01/14 10:54:27;;;;;;;2.20;1.00;;;9.70;97.20;;;;;;1714762;28;20914;-72
2023/01/14 10:55:20;;;;;;;2.30;1.00;;;9.70;97.20;;;;;;1714315;28;20255;-71